sensor_id;sensor_type;location;lat;lon;timestamp;temperature;humidity
17495;DHT22;8864;51.970;4.614;2023-04-28T00:00:35;17.40;56.60
17495;DHT22;8864;51.970;4.614;2023-04-28T00:03:02;17.40;56.60
17495;DHT22;8864;51.970;4.614;2023-04-28T00:05:30;17.40;56.60
17495;DHT22;8864;51.970;4.614;2023-04-28T00:07:57;17.40;56.70
17495;DHT22;8864;51.970;4.614;2023-04-28T00:10:24;17.40;56.70
17495;DHT22;8864;51.970;4.614;2023-04-28T00:12:51;17.40;56.70
17495;DHT22;8864;51.970;4.614;2023-04-28T00:15:18;17.40;56.60
17495;DHT22;8864;51.970;4.614;2023-04-28T00:17:45;17.40;56.60
17495;DHT22;8864;51.970;4.614;2023-04-28T00:20:11;17.40;56.70
17495;DHT22;8864;51.970;4.614;2023-04-28T00:22:40;17.40;56.60
17495;DHT22;8864;51.970;4.614;2023-04-28T00:25:08;17.40;56.60
17495;DHT22;8864;51.970;4.614;2023-04-28T00:27:35;17.40;56.70
17495;DHT22;8864;51.970;4.614;2023-04-28T00:30:02;17.40;56.60
17495;DHT22;8864;51.970;4.614;2023-04-28T00:32:29;17.40;56.70
17495;DHT22;8864;51.970;4.614;2023-04-28T00:34:56;17.40;56.70
17495;DHT22;8864;51.970;4.614;2023-04-28T00:37:23;17.40;56.70
17495;DHT22;8864;51.970;4.614;2023-04-28T00:39:55;17.30;57.30
17495;DHT22;8864;51.970;4.614;2023-04-28T00:42:22;17.40;56.80
17495;DHT22;8864;51.970;4.614;2023-04-28T00:44:49;17.40;56.70
17495;DHT22;8864;51.970;4.614;2023-04-28T00:47:16;17.40;56.70
17495;DHT22;8864;51.970;4.614;2023-04-28T00:49:44;17.40;56.70
17495;DHT22;8864;51.970;4.614;2023-04-28T00:52:12;17.40;56.70
17495;DHT22;8864;51.970;4.614;2023-04-28T00:54:39;17.40;56.70
17495;DHT22;8864;51.970;4.614;2023-04-28T00:57:08;17.40;56.80
17495;DHT22;8864;51.970;4.614;2023-04-28T00:59:35;17.40;56.70
17495;DHT22;8864;51.970;4.614;2023-04-28T01:02:03;17.40;56.80
17495;DHT22;8864;51.970;4.614;2023-04-28T01:04:32;17.40;56.80
17495;DHT22;8864;51.970;4.614;2023-04-28T01:07:00;17.40;57.50
17495;DHT22;8864;51.970;4.614;2023-04-28T01:09:27;17.40;56.80
17495;DHT22;8864;51.970;4.614;2023-04-28T01:11:54;17.40;56.80
17495;DHT22;8864;51.970;4.614;2023-04-28T01:14:24;17.30;56.70
17495;DHT22;8864;51.970;4.614;2023-04-28T01:16:52;17.40;56.80
17495;DHT22;8864;51.970;4.614;2023-04-28T01:19:20;17.30;56.70
17495;DHT22;8864;51.970;4.614;2023-04-28T01:21:47;17.30;56.70
17495;DHT22;8864;51.970;4.614;2023-04-28T01:24:16;17.30;56.80
17495;DHT22;8864;51.970;4.614;2023-04-28T01:26:43;17.30;56.80
17495;DHT22;8864;51.970;4.614;2023-04-28T01:29:10;17.30;56.80
17495;DHT22;8864;51.970;4.614;2023-04-28T01:31:37;17.30;56.80
17495;DHT22;8864;51.970;4.614;2023-04-28T01:34:04;17.30;56.80
17495;DHT22;8864;51.970;4.614;2023-04-28T01:36:31;17.30;56.80
17495;DHT22;8864;51.970;4.614;2023-04-28T01:38:58;17.30;56.80
17495;DHT22;8864;51.970;4.614;2023-04-28T01:41:27;17.30;56.80
17495;DHT22;8864;51.970;4.614;2023-04-28T01:43:54;17.30;56.80
17495;DHT22;8864;51.970;4.614;2023-04-28T01:46:21;17.30;56.80
17495;DHT22;8864;51.970;4.614;2023-04-28T01:48:47;17.30;56.80
17495;DHT22;8864;51.970;4.614;2023-04-28T01:51:14;17.30;56.90
17495;DHT22;8864;51.970;4.614;2023-04-28T01:53:41;17.30;56.80
17495;DHT22;8864;51.970;4.614;2023-04-28T01:56:08;17.30;56.90
17495;DHT22;8864;51.970;4.614;2023-04-28T01:58:36;17.30;56.90
17495;DHT22;8864;51.970;4.614;2023-04-28T02:01:03;17.30;56.90
17495;DHT22;8864;51.970;4.614;2023-04-28T02:03:31;17.30;56.90
17495;DHT22;8864;51.970;4.614;2023-04-28T02:05:59;17.30;57.60
17495;DHT22;8864;51.970;4.614;2023-04-28T02:08:26;17.30;56.90
17495;DHT22;8864;51.970;4.614;2023-04-28T02:10:53;17.30;56.90
17495;DHT22;8864;51.970;4.614;2023-04-28T02:13:21;17.30;56.90
17495;DHT22;8864;51.970;4.614;2023-04-28T02:15:49;17.30;56.90
17495;DHT22;8864;51.970;4.614;2023-04-28T02:18:16;17.30;56.90
17495;DHT22;8864;51.970;4.614;2023-04-28T02:20:43;17.30;56.90
17495;DHT22;8864;51.970;4.614;2023-04-28T02:23:10;17.30;56.90
17495;DHT22;8864;51.970;4.614;2023-04-28T02:25:37;17.30;56.90
17495;DHT22;8864;51.970;4.614;2023-04-28T02:28:04;17.30;56.90
17495;DHT22;8864;51.970;4.614;2023-04-28T02:30:31;17.30;56.90
17495;DHT22;8864;51.970;4.614;2023-04-28T02:33:00;17.30;56.90
17495;DHT22;8864;51.970;4.614;2023-04-28T02:35:26;17.30;57.60
17495;DHT22;8864;51.970;4.614;2023-04-28T02:37:54;17.30;57.00
17495;DHT22;8864;51.970;4.614;2023-04-28T02:40:20;17.30;57.00
17495;DHT22;8864;51.970;4.614;2023-04-28T02:42:47;17.30;57.00
17495;DHT22;8864;51.970;4.614;2023-04-28T02:45:14;17.30;57.00
17495;DHT22;8864;51.970;4.614;2023-04-28T02:47:41;17.30;57.00
17495;DHT22;8864;51.970;4.614;2023-04-28T02:50:10;17.30;57.00
17495;DHT22;8864;51.970;4.614;2023-04-28T02:52:37;17.20;56.90
17495;DHT22;8864;51.970;4.614;2023-04-28T02:55:04;17.30;57.00
17495;DHT22;8864;51.970;4.614;2023-04-28T02:57:31;17.30;57.00
17495;DHT22;8864;51.970;4.614;2023-04-28T02:59:58;17.30;57.00
17495;DHT22;8864;51.970;4.614;2023-04-28T03:02:25;17.30;57.10
17495;DHT22;8864;51.970;4.614;2023-04-28T03:04:52;17.30;57.00
17495;DHT22;8864;51.970;4.614;2023-04-28T03:07:20;17.20;56.90
17495;DHT22;8864;51.970;4.614;2023-04-28T03:09:47;17.30;57.00
17495;DHT22;8864;51.970;4.614;2023-04-28T03:12:14;17.30;57.00
17495;DHT22;8864;51.970;4.614;2023-04-28T03:14:41;17.30;57.00
17495;DHT22;8864;51.970;4.614;2023-04-28T03:17:08;17.20;57.00
17495;DHT22;8864;51.970;4.614;2023-04-28T03:19:35;17.20;56.90
17495;DHT22;8864;51.970;4.614;2023-04-28T03:22:02;17.30;57.00
17495;DHT22;8864;51.970;4.614;2023-04-28T03:24:30;17.20;56.90
17495;DHT22;8864;51.970;4.614;2023-04-28T03:26:57;17.30;57.00
17495;DHT22;8864;51.970;4.614;2023-04-28T03:29:24;17.20;57.00
17495;DHT22;8864;51.970;4.614;2023-04-28T03:31:51;17.20;56.90
17495;DHT22;8864;51.970;4.614;2023-04-28T03:34:17;17.20;56.90
17495;DHT22;8864;51.970;4.614;2023-04-28T03:36:44;17.30;57.00
17495;DHT22;8864;51.970;4.614;2023-04-28T03:39:11;17.20;56.90
17495;DHT22;8864;51.970;4.614;2023-04-28T03:41:39;17.30;57.00
17495;DHT22;8864;51.970;4.614;2023-04-28T03:44:06;17.20;57.00
17495;DHT22;8864;51.970;4.614;2023-04-28T03:46:33;17.20;57.00
17495;DHT22;8864;51.970;4.614;2023-04-28T03:49:00;17.20;56.90
17495;DHT22;8864;51.970;4.614;2023-04-28T03:51:28;17.20;57.00
17495;DHT22;8864;51.970;4.614;2023-04-28T03:53:55;17.20;57.00
17495;DHT22;8864;51.970;4.614;2023-04-28T03:56:22;17.20;57.00
17495;DHT22;8864;51.970;4.614;2023-04-28T03:58:50;17.20;57.00
17495;DHT22;8864;51.970;4.614;2023-04-28T04:01:17;17.20;57.00
17495;DHT22;8864;51.970;4.614;2023-04-28T04:03:44;17.20;57.00
17495;DHT22;8864;51.970;4.614;2023-04-28T04:06:11;17.20;57.00
17495;DHT22;8864;51.970;4.614;2023-04-28T04:08:38;17.20;57.00
17495;DHT22;8864;51.970;4.614;2023-04-28T04:11:05;17.20;57.00
17495;DHT22;8864;51.970;4.614;2023-04-28T04:13:32;17.20;57.00
17495;DHT22;8864;51.970;4.614;2023-04-28T04:16:00;17.20;56.90
17495;DHT22;8864;51.970;4.614;2023-04-28T04:18:27;17.20;57.00
17495;DHT22;8864;51.970;4.614;2023-04-28T04:20:54;17.20;57.00
17495;DHT22;8864;51.970;4.614;2023-04-28T04:23:21;17.20;57.00
17495;DHT22;8864;51.970;4.614;2023-04-28T04:25:48;17.20;57.00
17495;DHT22;8864;51.970;4.614;2023-04-28T04:28:15;17.20;57.00
17495;DHT22;8864;51.970;4.614;2023-04-28T04:30:42;17.20;57.00
17495;DHT22;8864;51.970;4.614;2023-04-28T04:33:11;17.20;57.00
17495;DHT22;8864;51.970;4.614;2023-04-28T04:35:37;17.20;57.10
17495;DHT22;8864;51.970;4.614;2023-04-28T04:38:05;17.20;57.00
17495;DHT22;8864;51.970;4.614;2023-04-28T04:40:32;17.20;57.00
17495;DHT22;8864;51.970;4.614;2023-04-28T04:42:59;17.20;57.10
17495;DHT22;8864;51.970;4.614;2023-04-28T04:45:26;17.10;57.00
17495;DHT22;8864;51.970;4.614;2023-04-28T04:47:53;17.20;57.00
17495;DHT22;8864;51.970;4.614;2023-04-28T04:50:22;17.20;57.10
17495;DHT22;8864;51.970;4.614;2023-04-28T04:52:49;17.20;57.10
17495;DHT22;8864;51.970;4.614;2023-04-28T04:55:15;17.20;57.10
17495;DHT22;8864;51.970;4.614;2023-04-28T04:57:42;17.20;57.10
17495;DHT22;8864;51.970;4.614;2023-04-28T05:00:10;17.20;57.10
17495;DHT22;8864;51.970;4.614;2023-04-28T05:02:38;17.20;57.10
17495;DHT22;8864;51.970;4.614;2023-04-28T05:05:05;17.20;57.10
17495;DHT22;8864;51.970;4.614;2023-04-28T05:07:33;17.20;57.10
17495;DHT22;8864;51.970;4.614;2023-04-28T05:10:00;17.20;57.10
17495;DHT22;8864;51.970;4.614;2023-04-28T05:12:27;17.20;57.10
17495;DHT22;8864;51.970;4.614;2023-04-28T05:14:54;17.10;57.10
17495;DHT22;8864;51.970;4.614;2023-04-28T05:17:21;17.20;57.10
17495;DHT22;8864;51.970;4.614;2023-04-28T05:19:48;17.20;57.10
17495;DHT22;8864;51.970;4.614;2023-04-28T05:22:15;17.20;57.10
17495;DHT22;8864;51.970;4.614;2023-04-28T05:24:43;17.20;57.10
17495;DHT22;8864;51.970;4.614;2023-04-28T05:27:10;17.20;57.10
17495;DHT22;8864;51.970;4.614;2023-04-28T05:29:37;17.20;57.10
17495;DHT22;8864;51.970;4.614;2023-04-28T05:32:04;17.20;57.10
17495;DHT22;8864;51.970;4.614;2023-04-28T05:34:31;17.10;57.10
17495;DHT22;8864;51.970;4.614;2023-04-28T05:36:58;17.10;57.10
17495;DHT22;8864;51.970;4.614;2023-04-28T05:39:25;17.20;57.20
17495;DHT22;8864;51.970;4.614;2023-04-28T05:41:53;17.20;57.20
17495;DHT22;8864;51.970;4.614;2023-04-28T05:44:20;17.20;57.20
17495;DHT22;8864;51.970;4.614;2023-04-28T05:46:47;17.10;57.10
17495;DHT22;8864;51.970;4.614;2023-04-28T05:49:14;17.10;57.10
17495;DHT22;8864;51.970;4.614;2023-04-28T05:51:40;17.20;57.20
17495;DHT22;8864;51.970;4.614;2023-04-28T05:54:09;17.20;57.20
17495;DHT22;8864;51.970;4.614;2023-04-28T05:56:35;17.10;57.20
17495;DHT22;8864;51.970;4.614;2023-04-28T05:59:04;17.20;57.30
17495;DHT22;8864;51.970;4.614;2023-04-28T06:01:31;17.20;57.30
17495;DHT22;8864;51.970;4.614;2023-04-28T06:03:58;17.20;57.30
17495;DHT22;8864;51.970;4.614;2023-04-28T06:06:25;17.20;57.30
17495;DHT22;8864;51.970;4.614;2023-04-28T06:08:53;17.20;57.30
17495;DHT22;8864;51.970;4.614;2023-04-28T06:11:20;17.20;57.30
17495;DHT22;8864;51.970;4.614;2023-04-28T06:13:48;17.20;57.30
17495;DHT22;8864;51.970;4.614;2023-04-28T06:16:17;17.20;57.30
17495;DHT22;8864;51.970;4.614;2023-04-28T06:18:44;17.20;57.30
17495;DHT22;8864;51.970;4.614;2023-04-28T06:21:11;17.20;57.30
17495;DHT22;8864;51.970;4.614;2023-04-28T06:23:38;17.20;57.20
17495;DHT22;8864;51.970;4.614;2023-04-28T06:26:06;17.20;57.30
17495;DHT22;8864;51.970;4.614;2023-04-28T06:28:33;17.20;57.30
17495;DHT22;8864;51.970;4.614;2023-04-28T06:31:00;17.20;57.30
17495;DHT22;8864;51.970;4.614;2023-04-28T06:33:28;17.20;57.30
17495;DHT22;8864;51.970;4.614;2023-04-28T06:35:55;17.20;57.30
17495;DHT22;8864;51.970;4.614;2023-04-28T06:38:22;17.20;57.30
17495;DHT22;8864;51.970;4.614;2023-04-28T06:40:49;17.20;57.30
17495;DHT22;8864;51.970;4.614;2023-04-28T06:43:16;17.20;57.30
17495;DHT22;8864;51.970;4.614;2023-04-28T06:45:43;17.20;57.30
17495;DHT22;8864;51.970;4.614;2023-04-28T06:48:10;17.20;57.30
17495;DHT22;8864;51.970;4.614;2023-04-28T06:50:39;17.20;57.90
17495;DHT22;8864;51.970;4.614;2023-04-28T06:53:06;17.30;57.30
17495;DHT22;8864;51.970;4.614;2023-04-28T06:55:33;17.30;57.40
17495;DHT22;8864;51.970;4.614;2023-04-28T06:58:00;17.30;57.40
17495;DHT22;8864;51.970;4.614;2023-04-28T07:00:27;17.30;57.40
17495;DHT22;8864;51.970;4.614;2023-04-28T07:02:54;17.30;57.40
17495;DHT22;8864;51.970;4.614;2023-04-28T07:05:21;17.30;57.40
17495;DHT22;8864;51.970;4.614;2023-04-28T07:07:49;17.30;57.40
17495;DHT22;8864;51.970;4.614;2023-04-28T07:10:17;17.40;57.50
17495;DHT22;8864;51.970;4.614;2023-04-28T07:12:44;17.30;57.40
17495;DHT22;8864;51.970;4.614;2023-04-28T07:15:11;17.30;57.50
17495;DHT22;8864;51.970;4.614;2023-04-28T07:17:38;17.40;57.50
17495;DHT22;8864;51.970;4.614;2023-04-28T07:20:06;17.40;57.50
17495;DHT22;8864;51.970;4.614;2023-04-28T07:22:33;17.40;57.50
17495;DHT22;8864;51.970;4.614;2023-04-28T07:25:01;17.40;57.50
17495;DHT22;8864;51.970;4.614;2023-04-28T07:27:29;17.40;57.50
17495;DHT22;8864;51.970;4.614;2023-04-28T07:29:55;17.40;57.50
17495;DHT22;8864;51.970;4.614;2023-04-28T07:32:22;17.30;57.50
17495;DHT22;8864;51.970;4.614;2023-04-28T07:34:49;17.40;57.50
17495;DHT22;8864;51.970;4.614;2023-04-28T07:37:17;17.40;57.50
17495;DHT22;8864;51.970;4.614;2023-04-28T07:39:44;17.40;57.50
17495;DHT22;8864;51.970;4.614;2023-04-28T07:42:13;17.40;57.50
17495;DHT22;8864;51.970;4.614;2023-04-28T07:44:40;17.40;57.50
17495;DHT22;8864;51.970;4.614;2023-04-28T07:47:07;17.40;57.40
17495;DHT22;8864;51.970;4.614;2023-04-28T07:49:35;17.50;57.50
17495;DHT22;8864;51.970;4.614;2023-04-28T07:52:02;17.50;57.50
17495;DHT22;8864;51.970;4.614;2023-04-28T07:54:29;17.50;57.50
17495;DHT22;8864;51.970;4.614;2023-04-28T07:56:56;17.50;57.40
17495;DHT22;8864;51.970;4.614;2023-04-28T07:59:25;17.50;57.40
17495;DHT22;8864;51.970;4.614;2023-04-28T08:01:52;17.50;57.50
17495;DHT22;8864;51.970;4.614;2023-04-28T08:04:18;17.50;57.50
17495;DHT22;8864;51.970;4.614;2023-04-28T08:06:45;17.50;57.50
17495;DHT22;8864;51.970;4.614;2023-04-28T08:09:12;17.70;57.60
17495;DHT22;8864;51.970;4.614;2023-04-28T08:11:39;17.50;57.50
17495;DHT22;8864;51.970;4.614;2023-04-28T08:14:06;17.50;57.40
17495;DHT22;8864;51.970;4.614;2023-04-28T08:16:34;17.50;57.40
17495;DHT22;8864;51.970;4.614;2023-04-28T08:19:05;17.60;57.50
17495;DHT22;8864;51.970;4.614;2023-04-28T08:21:32;17.50;57.50
17495;DHT22;8864;51.970;4.614;2023-04-28T08:23:59;17.50;57.40
17495;DHT22;8864;51.970;4.614;2023-04-28T08:26:26;17.50;57.40
17495;DHT22;8864;51.970;4.614;2023-04-28T08:28:53;17.60;57.40
17495;DHT22;8864;51.970;4.614;2023-04-28T08:31:20;17.60;57.50
17495;DHT22;8864;51.970;4.614;2023-04-28T08:33:49;17.60;57.40
17495;DHT22;8864;51.970;4.614;2023-04-28T08:36:16;17.60;57.40
17495;DHT22;8864;51.970;4.614;2023-04-28T08:38:44;17.60;57.40
17495;DHT22;8864;51.970;4.614;2023-04-28T08:41:12;17.60;57.40
17495;DHT22;8864;51.970;4.614;2023-04-28T08:43:40;17.60;57.40
17495;DHT22;8864;51.970;4.614;2023-04-28T08:46:08;17.60;57.40
17495;DHT22;8864;51.970;4.614;2023-04-28T08:48:39;17.60;57.40
17495;DHT22;8864;51.970;4.614;2023-04-28T08:51:09;17.60;57.50
17495;DHT22;8864;51.970;4.614;2023-04-28T08:53:38;17.60;57.40
17495;DHT22;8864;51.970;4.614;2023-04-28T08:56:06;17.60;57.40
17495;DHT22;8864;51.970;4.614;2023-04-28T08:58:35;17.60;57.40
17495;DHT22;8864;51.970;4.614;2023-04-28T09:01:02;17.60;57.30
17495;DHT22;8864;51.970;4.614;2023-04-28T09:03:30;17.60;57.40
17495;DHT22;8864;51.970;4.614;2023-04-28T09:05:57;17.60;57.40
17495;DHT22;8864;51.970;4.614;2023-04-28T09:08:26;17.70;57.40
17495;DHT22;8864;51.970;4.614;2023-04-28T09:11:06;17.60;57.40
17495;DHT22;8864;51.970;4.614;2023-04-28T09:13:34;17.70;57.40
17495;DHT22;8864;51.970;4.614;2023-04-28T09:16:02;17.70;57.30
17495;DHT22;8864;51.970;4.614;2023-04-28T09:18:29;17.70;57.40
17495;DHT22;8864;51.970;4.614;2023-04-28T09:21:05;17.70;57.30
17495;DHT22;8864;51.970;4.614;2023-04-28T09:23:34;17.70;57.30
17495;DHT22;8864;51.970;4.614;2023-04-28T09:26:11;17.70;57.30
17495;DHT22;8864;51.970;4.614;2023-04-28T09:28:39;17.70;57.30
17495;DHT22;8864;51.970;4.614;2023-04-28T09:31:21;17.70;57.40
17495;DHT22;8864;51.970;4.614;2023-04-28T09:33:56;17.80;57.40
17495;DHT22;8864;51.970;4.614;2023-04-28T09:36:26;17.80;57.30
17495;DHT22;8864;51.970;4.614;2023-04-28T09:38:58;17.80;57.40
17495;DHT22;8864;51.970;4.614;2023-04-28T09:41:34;17.70;57.30
17495;DHT22;8864;51.970;4.614;2023-04-28T09:44:12;17.80;57.40
17495;DHT22;8864;51.970;4.614;2023-04-28T09:46:40;17.80;57.40
17495;DHT22;8864;51.970;4.614;2023-04-28T09:49:07;17.80;57.40
17495;DHT22;8864;51.970;4.614;2023-04-28T09:51:34;17.80;57.40
17495;DHT22;8864;51.970;4.614;2023-04-28T09:54:03;17.80;57.40
17495;DHT22;8864;51.970;4.614;2023-04-28T09:56:31;17.90;57.40
17495;DHT22;8864;51.970;4.614;2023-04-28T09:59:00;17.90;57.50
17495;DHT22;8864;51.970;4.614;2023-04-28T10:01:31;17.90;57.40
17495;DHT22;8864;51.970;4.614;2023-04-28T10:03:59;17.80;57.40
17495;DHT22;8864;51.970;4.614;2023-04-28T10:06:27;17.90;57.50
17495;DHT22;8864;51.970;4.614;2023-04-28T10:08:55;17.90;57.50
17495;DHT22;8864;51.970;4.614;2023-04-28T10:11:26;17.90;57.50
17495;DHT22;8864;51.970;4.614;2023-04-28T10:13:53;17.90;57.50
17495;DHT22;8864;51.970;4.614;2023-04-28T10:16:21;17.90;57.50
17495;DHT22;8864;51.970;4.614;2023-04-28T10:18:49;17.90;57.60
17495;DHT22;8864;51.970;4.614;2023-04-28T10:21:18;18.00;57.60
17495;DHT22;8864;51.970;4.614;2023-04-28T10:24:08;18.00;57.60
17495;DHT22;8864;51.970;4.614;2023-04-28T10:27:03;18.00;57.80
17495;DHT22;8864;51.970;4.614;2023-04-28T10:29:31;18.00;57.80
17495;DHT22;8864;51.970;4.614;2023-04-28T10:32:21;18.00;57.80
17495;DHT22;8864;51.970;4.614;2023-04-28T10:34:50;18.00;57.80
17495;DHT22;8864;51.970;4.614;2023-04-28T10:37:17;18.00;57.80
17495;DHT22;8864;51.970;4.614;2023-04-28T10:42:54;18.00;57.80
17495;DHT22;8864;51.970;4.614;2023-04-28T10:45:59;18.00;57.90
17495;DHT22;8864;51.970;4.614;2023-04-28T10:48:56;18.00;57.90
17495;DHT22;8864;51.970;4.614;2023-04-28T10:51:27;18.00;57.90
17495;DHT22;8864;51.970;4.614;2023-04-28T10:54:16;18.00;58.10
17495;DHT22;8864;51.970;4.614;2023-04-28T10:57:15;18.00;58.20
17495;DHT22;8864;51.970;4.614;2023-04-28T10:59:47;18.00;58.30
17495;DHT22;8864;51.970;4.614;2023-04-28T11:02:38;18.00;59.00
17495;DHT22;8864;51.970;4.614;2023-04-28T11:05:12;18.00;59.10
17495;DHT22;8864;51.970;4.614;2023-04-28T11:07:39;18.00;58.50
17495;DHT22;8864;51.970;4.614;2023-04-28T11:10:07;18.00;58.50
17495;DHT22;8864;51.970;4.614;2023-04-28T11:12:34;18.00;58.60
17495;DHT22;8864;51.970;4.614;2023-04-28T11:15:12;18.00;58.80
17495;DHT22;8864;51.970;4.614;2023-04-28T11:17:40;18.00;59.00
17495;DHT22;8864;51.970;4.614;2023-04-28T11:20:11;18.00;59.00
17495;DHT22;8864;51.970;4.614;2023-04-28T11:22:40;18.00;59.10
17495;DHT22;8864;51.970;4.614;2023-04-28T11:25:07;18.00;59.20
17495;DHT22;8864;51.970;4.614;2023-04-28T11:27:34;18.00;59.40
17495;DHT22;8864;51.970;4.614;2023-04-28T11:30:02;18.00;59.40
17495;DHT22;8864;51.970;4.614;2023-04-28T11:32:33;18.00;59.60
17495;DHT22;8864;51.970;4.614;2023-04-28T11:35:01;18.00;59.70
17495;DHT22;8864;51.970;4.614;2023-04-28T11:37:28;18.00;59.80
17495;DHT22;8864;51.970;4.614;2023-04-28T11:39:55;18.00;60.00
17495;DHT22;8864;51.970;4.614;2023-04-28T11:42:23;18.00;60.20
17495;DHT22;8864;51.970;4.614;2023-04-28T11:44:52;18.00;60.40
17495;DHT22;8864;51.970;4.614;2023-04-28T11:47:29;18.00;60.50
17495;DHT22;8864;51.970;4.614;2023-04-28T11:49:58;18.00;60.70
17495;DHT22;8864;51.970;4.614;2023-04-28T11:52:25;18.00;60.80
17495;DHT22;8864;51.970;4.614;2023-04-28T11:54:53;18.10;61.80
17495;DHT22;8864;51.970;4.614;2023-04-28T11:57:20;18.10;62.60
17495;DHT22;8864;51.970;4.614;2023-04-28T11:59:48;18.10;62.60
17495;DHT22;8864;51.970;4.614;2023-04-28T12:02:15;18.10;63.00
17495;DHT22;8864;51.970;4.614;2023-04-28T12:04:49;18.10;63.00
17495;DHT22;8864;51.970;4.614;2023-04-28T12:07:18;18.10;63.80
17495;DHT22;8864;51.970;4.614;2023-04-28T12:09:46;18.10;63.60
17495;DHT22;8864;51.970;4.614;2023-04-28T12:12:15;18.10;63.50
17495;DHT22;8864;51.970;4.614;2023-04-28T12:14:56;18.10;63.30
17495;DHT22;8864;51.970;4.614;2023-04-28T12:17:24;18.10;63.20
17495;DHT22;8864;51.970;4.614;2023-04-28T12:19:51;18.10;63.10
17495;DHT22;8864;51.970;4.614;2023-04-28T12:22:20;18.10;62.90
17495;DHT22;8864;51.970;4.614;2023-04-28T12:25:02;18.10;62.70
17495;DHT22;8864;51.970;4.614;2023-04-28T12:27:29;18.10;62.70
17495;DHT22;8864;51.970;4.614;2023-04-28T12:29:56;18.10;62.70
17495;DHT22;8864;51.970;4.614;2023-04-28T12:32:36;18.10;62.60
17495;DHT22;8864;51.970;4.614;2023-04-28T12:35:05;18.10;62.60
17495;DHT22;8864;51.970;4.614;2023-04-28T12:37:33;18.10;62.60
17495;DHT22;8864;51.970;4.614;2023-04-28T12:40:00;18.10;62.60
17495;DHT22;8864;51.970;4.614;2023-04-28T12:42:29;18.10;62.60
17495;DHT22;8864;51.970;4.614;2023-04-28T12:44:56;18.10;62.60
17495;DHT22;8864;51.970;4.614;2023-04-28T12:47:23;18.10;62.60
17495;DHT22;8864;51.970;4.614;2023-04-28T12:49:50;18.10;62.60
17495;DHT22;8864;51.970;4.614;2023-04-28T12:52:18;18.20;62.60
17495;DHT22;8864;51.970;4.614;2023-04-28T12:54:46;18.10;62.60
17495;DHT22;8864;51.970;4.614;2023-04-28T12:57:14;18.20;62.70
17495;DHT22;8864;51.970;4.614;2023-04-28T12:59:42;18.10;62.60
17495;DHT22;8864;51.970;4.614;2023-04-28T13:02:09;18.10;62.60
17495;DHT22;8864;51.970;4.614;2023-04-28T13:04:36;18.20;62.70
17495;DHT22;8864;51.970;4.614;2023-04-28T13:07:03;18.20;62.70
17495;DHT22;8864;51.970;4.614;2023-04-28T13:09:31;18.20;62.70
17495;DHT22;8864;51.970;4.614;2023-04-28T13:12:00;18.20;62.70
17495;DHT22;8864;51.970;4.614;2023-04-28T13:14:28;18.10;62.70
17495;DHT22;8864;51.970;4.614;2023-04-28T13:16:56;18.20;62.90
17495;DHT22;8864;51.970;4.614;2023-04-28T13:19:23;18.20;62.90
17495;DHT22;8864;51.970;4.614;2023-04-28T13:21:50;18.20;62.90
17495;DHT22;8864;51.970;4.614;2023-04-28T13:24:17;18.10;62.80
17495;DHT22;8864;51.970;4.614;2023-04-28T13:26:44;18.20;62.90
17495;DHT22;8864;51.970;4.614;2023-04-28T13:29:12;18.20;62.90
17495;DHT22;8864;51.970;4.614;2023-04-28T13:31:40;18.20;62.90
17495;DHT22;8864;51.970;4.614;2023-04-28T13:34:07;18.10;62.90
17495;DHT22;8864;51.970;4.614;2023-04-28T13:36:40;18.10;62.90
17495;DHT22;8864;51.970;4.614;2023-04-28T13:39:07;18.20;63.00
17495;DHT22;8864;51.970;4.614;2023-04-28T13:41:36;18.20;63.20
17495;DHT22;8864;51.970;4.614;2023-04-28T13:44:03;18.30;63.30
17495;DHT22;8864;51.970;4.614;2023-04-28T13:46:31;18.20;63.30
17495;DHT22;8864;51.970;4.614;2023-04-28T13:48:59;18.20;63.30
17495;DHT22;8864;51.970;4.614;2023-04-28T13:51:26;18.20;63.30
17495;DHT22;8864;51.970;4.614;2023-04-28T13:53:57;18.20;63.60
17495;DHT22;8864;51.970;4.614;2023-04-28T13:56:24;18.20;63.80
17495;DHT22;8864;51.970;4.614;2023-04-28T13:58:51;18.20;64.00
17495;DHT22;8864;51.970;4.614;2023-04-28T14:01:18;18.20;64.20
17495;DHT22;8864;51.970;4.614;2023-04-28T14:03:47;18.10;64.30
17495;DHT22;8864;51.970;4.614;2023-04-28T14:06:14;18.20;64.40
17495;DHT22;8864;51.970;4.614;2023-04-28T14:08:41;18.20;64.40
17495;DHT22;8864;51.970;4.614;2023-04-28T14:11:08;18.20;64.30
17495;DHT22;8864;51.970;4.614;2023-04-28T14:13:35;18.20;64.40
17495;DHT22;8864;51.970;4.614;2023-04-28T14:16:01;18.20;64.40
17495;DHT22;8864;51.970;4.614;2023-04-28T14:18:29;18.10;64.60
17495;DHT22;8864;51.970;4.614;2023-04-28T14:20:59;18.10;64.90
17495;DHT22;8864;51.970;4.614;2023-04-28T14:23:26;18.20;65.10
17495;DHT22;8864;51.970;4.614;2023-04-28T14:25:53;18.20;65.40
17495;DHT22;8864;51.970;4.614;2023-04-28T14:28:21;18.10;65.70
17495;DHT22;8864;51.970;4.614;2023-04-28T14:30:48;18.20;65.60
17495;DHT22;8864;51.970;4.614;2023-04-28T14:33:15;18.10;65.50
17495;DHT22;8864;51.970;4.614;2023-04-28T14:35:42;18.20;65.50
17495;DHT22;8864;51.970;4.614;2023-04-28T14:38:11;18.20;65.40
17495;DHT22;8864;51.970;4.614;2023-04-28T14:40:38;18.10;65.30
17495;DHT22;8864;51.970;4.614;2023-04-28T14:43:07;18.20;65.50
17495;DHT22;8864;51.970;4.614;2023-04-28T14:45:35;18.10;65.40
17495;DHT22;8864;51.970;4.614;2023-04-28T14:48:02;18.20;65.60
17495;DHT22;8864;51.970;4.614;2023-04-28T14:50:31;18.20;65.80
17495;DHT22;8864;51.970;4.614;2023-04-28T14:52:58;18.10;65.60
17495;DHT22;8864;51.970;4.614;2023-04-28T14:55:31;18.10;65.80
17495;DHT22;8864;51.970;4.614;2023-04-28T14:57:58;18.20;66.00
17495;DHT22;8864;51.970;4.614;2023-04-28T15:00:25;18.20;66.00
17495;DHT22;8864;51.970;4.614;2023-04-28T15:02:52;18.20;66.00
17495;DHT22;8864;51.970;4.614;2023-04-28T15:05:19;18.10;66.10
17495;DHT22;8864;51.970;4.614;2023-04-28T15:07:46;18.20;66.40
17495;DHT22;8864;51.970;4.614;2023-04-28T15:10:13;18.20;66.50
17495;DHT22;8864;51.970;4.614;2023-04-28T15:12:41;18.20;66.70
17495;DHT22;8864;51.970;4.614;2023-04-28T15:15:09;18.20;66.70
17495;DHT22;8864;51.970;4.614;2023-04-28T15:17:36;18.10;66.70
17495;DHT22;8864;51.970;4.614;2023-04-28T15:20:04;18.20;67.50
17495;DHT22;8864;51.970;4.614;2023-04-28T15:22:31;18.10;66.80
17495;DHT22;8864;51.970;4.614;2023-04-28T15:24:59;18.10;67.00
17495;DHT22;8864;51.970;4.614;2023-04-28T15:27:26;18.10;67.20
17495;DHT22;8864;51.970;4.614;2023-04-28T15:29:54;18.10;67.30
17495;DHT22;8864;51.970;4.614;2023-04-28T15:32:21;18.10;67.30
17495;DHT22;8864;51.970;4.614;2023-04-28T15:34:48;18.10;67.30
17495;DHT22;8864;51.970;4.614;2023-04-28T15:37:38;18.10;67.50
17495;DHT22;8864;51.970;4.614;2023-04-28T15:40:07;18.10;67.30
17495;DHT22;8864;51.970;4.614;2023-04-28T15:42:34;18.10;67.50
17495;DHT22;8864;51.970;4.614;2023-04-28T15:45:04;18.10;67.30
17495;DHT22;8864;51.970;4.614;2023-04-28T15:47:31;18.10;67.50
17495;DHT22;8864;51.970;4.614;2023-04-28T15:49:58;18.10;67.50
17495;DHT22;8864;51.970;4.614;2023-04-28T15:52:25;18.10;67.40
17495;DHT22;8864;51.970;4.614;2023-04-28T15:54:54;18.10;67.50